createdAt,value
2018-10-21T00:00:04.572Z,16.83
2018-10-21T00:02:20.735Z,14.13
2018-10-21T00:04:51.461Z,19.87
2018-10-21T00:09:27.657Z,17.37
2018-10-21T00:11:45.302Z,16.13
2018-10-21T00:13:58.025Z,19.27
2018-10-21T00:16:19.218Z,17.57
2018-10-21T00:18:37.578Z,12.97
2018-10-21T00:20:50.743Z,13.10
2018-10-21T00:23:00.157Z,14.50
2018-10-21T00:25:10.620Z,16.33
2018-10-21T00:27:26.213Z,16.30
2018-10-21T00:29:33.694Z,12.67
2018-10-21T00:31:47.261Z,14.33
2018-10-21T00:33:56.846Z,13.97
2018-10-21T00:36:09.591Z,15.23
2018-10-21T00:38:18.354Z,15.30
2018-10-21T00:40:28.761Z,21.73
2018-10-21T00:42:42.219Z,14.27
2018-10-21T00:45:05.506Z,12.47
2018-10-21T00:47:13.692Z,14.77
2018-10-21T00:49:26.699Z,15.00
2018-10-21T00:51:48.129Z,12.30
2018-10-21T00:53:58.624Z,18.97
2018-10-21T00:56:11.027Z,17.13
2018-10-21T00:58:27.743Z,13.27
2018-10-21T01:00:56.128Z,14.77
2018-10-21T01:03:06.931Z,14.40
2018-10-21T01:05:16.110Z,14.67
2018-10-21T01:07:24.937Z,15.40
2018-10-21T01:09:40.213Z,13.63
2018-10-21T01:12:00.215Z,14.97
2018-10-21T01:14:16.281Z,17.27
2018-10-21T01:16:40.073Z,14.33
2018-10-21T01:18:53.452Z,16.00
2018-10-21T01:20:59.659Z,14.00
2018-10-21T01:23:07.767Z,13.87
2018-10-21T01:25:16.558Z,14.33
2018-10-21T01:27:24.539Z,14.33
2018-10-21T01:29:32.547Z,16.23
2018-10-21T01:31:40.537Z,15.70
2018-10-21T01:33:48.509Z,15.27
2018-10-21T01:35:56.498Z,16.30
2018-10-21T01:38:04.887Z,14.80
2018-10-21T01:40:47.764Z,12.20
2018-10-21T01:42:56.444Z,14.30
2018-10-21T01:45:04.465Z,17.57
2018-10-21T01:47:12.289Z,14.00
2018-10-21T01:49:20.299Z,13.00
2018-10-21T01:51:28.285Z,12.47
2018-10-21T01:53:36.859Z,14.60
2018-10-21T01:55:44.843Z,15.50
2018-10-21T01:57:52.940Z,13.57
2018-10-21T02:00:01.014Z,14.90
2018-10-21T02:02:08.963Z,15.83
2018-10-21T02:04:16.961Z,14.17
2018-10-21T02:06:24.946Z,13.03
2018-10-21T02:08:32.895Z,13.17
2018-10-21T02:10:41.297Z,16.23
2018-10-21T02:12:49.305Z,14.17
2018-10-21T02:14:57.419Z,14.57
2018-10-21T02:17:05.387Z,15.23
2018-10-21T02:19:13.340Z,13.60
2018-10-21T02:21:21.318Z,14.77
2018-10-21T02:23:29.282Z,12.90
2018-10-21T02:25:37.351Z,12.17
2018-10-21T02:27:46.879Z,11.80
2018-10-21T02:29:54.931Z,14.17
2018-10-21T02:32:02.904Z,13.03
2018-10-21T02:34:11.968Z,15.47
2018-10-21T02:36:19.966Z,15.70
2018-10-21T02:38:27.956Z,13.83
2018-10-21T02:41:38.779Z,12.00
2018-10-21T02:43:47.372Z,12.73
2018-10-21T02:45:55.427Z,15.47
2018-10-21T02:48:15.647Z,12.87
2018-10-21T02:50:23.571Z,15.00
2018-10-21T02:52:31.527Z,11.83
2018-10-21T02:54:39.705Z,13.20
2018-10-21T02:56:47.652Z,11.97
2018-10-21T02:58:55.687Z,12.20
2018-10-21T03:01:03.680Z,13.57
2018-10-21T03:03:11.701Z,16.37
2018-10-21T03:05:20.056Z,17.00
2018-10-21T03:07:28.018Z,13.17
2018-10-21T03:09:35.992Z,12.03
2018-10-21T03:11:44.145Z,13.17
2018-10-21T03:13:52.120Z,14.67
2018-10-21T03:16:00.129Z,12.73
2018-10-21T03:18:08.123Z,17.70
2018-10-21T03:20:16.105Z,12.47
2018-10-21T03:22:24.531Z,12.90
2018-10-21T03:24:32.497Z,14.20
2018-10-21T03:26:40.466Z,12.97
2018-10-21T03:28:48.427Z,16.70
2018-10-21T03:30:56.476Z,13.10
2018-10-21T03:33:04.684Z,12.90
2018-10-21T03:35:11.965Z,14.13
2018-10-21T03:37:20.948Z,13.70
2018-10-21T03:39:29.565Z,12.93
2018-10-21T03:41:38.648Z,14.10
2018-10-21T03:43:46.666Z,12.20
2018-10-21T03:45:56.663Z,12.07
2018-10-21T03:48:04.612Z,12.00
2018-10-21T03:50:12.695Z,12.90
2018-10-21T03:52:20.598Z,15.57
2018-10-21T03:54:28.567Z,13.53
2018-10-21T03:56:37.141Z,12.10
2018-10-21T03:58:45.073Z,12.00
2018-10-21T04:00:57.848Z,13.20
2018-10-21T04:03:13.202Z,12.30
2018-10-21T04:05:21.274Z,11.10
2018-10-21T04:07:29.153Z,12.43
2018-10-21T04:09:37.143Z,13.73
2018-10-21T04:11:45.726Z,14.60
2018-10-21T04:13:53.668Z,12.87
2018-10-21T04:16:01.669Z,11.40
2018-10-21T04:18:09.640Z,11.77
2018-10-21T04:20:17.630Z,12.37
2018-10-21T04:22:25.834Z,11.97
2018-10-21T04:24:33.782Z,15.40
2018-10-21T04:26:41.762Z,13.30
2018-10-21T04:28:49.711Z,14.53
2018-10-21T04:30:57.671Z,14.53
2018-10-21T04:33:30.773Z,14.30
2018-10-21T04:35:38.749Z,11.67
2018-10-21T04:38:50.667Z,13.27
2018-10-21T04:40:58.707Z,12.80
2018-10-21T04:43:06.696Z,12.60
2018-10-21T04:45:15.904Z,16.37
2018-10-21T04:47:21.534Z,15.37
2018-10-21T04:49:29.852Z,17.63
2018-10-21T04:51:41.549Z,15.70
2018-10-21T04:53:51.265Z,15.63
2018-10-21T04:56:08.711Z,16.13
2018-10-21T04:58:16.859Z,12.43
2018-10-21T05:00:24.846Z,11.00
2018-10-21T05:02:33.386Z,10.20
2018-10-21T05:04:41.800Z,8.73
2018-10-21T05:06:49.733Z,11.20
2018-10-21T05:08:57.722Z,10.17
2018-10-21T05:11:05.713Z,10.10
2018-10-21T05:13:13.669Z,11.37
2018-10-21T05:15:22.366Z,9.57
2018-10-21T05:17:30.228Z,10.27
2018-10-21T05:19:38.262Z,11.60
2018-10-21T05:21:46.900Z,11.03
2018-10-21T05:23:55.837Z,9.40
2018-10-21T05:26:03.831Z,11.47
2018-10-21T05:28:11.845Z,10.83
2018-10-21T05:30:19.857Z,14.63
2018-10-21T05:32:27.915Z,10.83
2018-10-21T05:34:35.802Z,14.23
2018-10-21T05:36:43.862Z,11.70
2018-10-21T05:38:52.151Z,11.97
2018-10-21T05:41:00.145Z,10.47
2018-10-21T05:43:08.262Z,11.80
2018-10-21T05:45:16.327Z,13.80
2018-10-21T05:47:22.690Z,12.50
2018-10-21T05:49:30.644Z,14.40
2018-10-21T05:51:39.042Z,10.37
2018-10-21T05:53:48.159Z,11.60
2018-10-21T05:55:56.493Z,13.47
2018-10-21T05:58:04.543Z,13.40
2018-10-21T06:00:20.463Z,13.90
2018-10-21T06:02:28.416Z,14.83
2018-10-21T06:04:36.435Z,19.20
2018-10-21T06:06:44.396Z,11.60
2018-10-21T06:08:52.377Z,11.93
2018-10-21T06:11:01.335Z,12.83
2018-10-21T06:13:09.612Z,11.80
2018-10-21T06:15:17.659Z,12.63
2018-10-21T06:17:28.478Z,15.23
2018-10-21T06:19:54.329Z,12.03
2018-10-21T06:22:02.398Z,11.80
2018-10-21T06:24:10.360Z,10.90
2018-10-21T06:26:18.970Z,10.40
2018-10-21T06:28:27.075Z,11.70
2018-10-21T06:30:35.059Z,11.90
2018-10-21T06:32:45.398Z,12.60
2018-10-21T06:34:53.432Z,10.90
2018-10-21T06:37:01.677Z,11.33
2018-10-21T06:39:10.105Z,10.43
2018-10-21T06:41:18.287Z,11.10
2018-10-21T06:43:27.094Z,12.40
2018-10-21T06:45:35.109Z,14.10
2018-10-21T06:47:44.143Z,14.77
2018-10-21T06:49:52.181Z,11.77
2018-10-21T06:52:00.185Z,13.30
2018-10-21T06:54:08.540Z,11.73
2018-10-21T06:56:16.573Z,13.63
2018-10-21T06:58:24.535Z,18.50
2018-10-21T07:00:32.570Z,15.20
2018-10-21T07:02:40.776Z,21.50
2018-10-21T07:04:49.361Z,16.13
2018-10-21T07:06:57.682Z,13.20
2018-10-21T07:09:06.776Z,14.13
2018-10-21T07:11:14.912Z,16.00
2018-10-21T07:13:23.047Z,15.57
2018-10-21T07:15:31.048Z,13.40
2018-10-21T07:17:39.033Z,17.30
2018-10-21T07:19:47.037Z,16.30
2018-10-21T07:21:55.993Z,16.03
2018-10-21T07:24:03.953Z,18.30
2018-10-21T07:26:12.022Z,19.00
2018-10-21T07:28:20.523Z,16.13
2018-10-21T07:30:28.472Z,16.60
2018-10-21T07:32:36.473Z,16.43
2018-10-21T07:34:44.895Z,15.90
2018-10-21T07:36:52.931Z,16.47
2018-10-21T07:39:01.032Z,18.00
2018-10-21T07:41:09.024Z,19.23
2018-10-21T07:43:17.281Z,16.27
2018-10-21T07:45:27.549Z,13.70
2018-10-21T07:47:35.695Z,17.67
2018-10-21T07:49:42.645Z,19.33
2018-10-21T07:51:50.697Z,19.07
2018-10-21T07:53:58.949Z,14.13
2018-10-21T07:56:07.150Z,17.63
2018-10-21T07:58:15.239Z,14.20
2018-10-21T08:00:23.337Z,20.23
2018-10-21T08:02:31.462Z,17.27
2018-10-21T08:04:39.545Z,18.33
2018-10-21T08:07:41.126Z,19.50
2018-10-21T08:09:54.809Z,18.70
2018-10-21T08:12:09.262Z,13.93
2018-10-21T08:14:23.775Z,12.70
2018-10-21T08:16:38.561Z,19.30
2018-10-21T08:18:54.843Z,14.40
2018-10-21T08:21:10.228Z,17.33
2018-10-21T08:23:25.413Z,14.90
2018-10-21T08:27:55.835Z,12.87
2018-10-21T08:32:35.593Z,13.07
2018-10-21T08:34:53.177Z,16.80
2018-10-21T08:37:08.146Z,13.00
2018-10-21T08:39:21.289Z,16.80
2018-10-21T08:41:49.937Z,13.40
2018-10-21T08:44:02.945Z,15.07
2018-10-21T08:46:32.170Z,16.87
2018-10-21T08:48:58.260Z,15.50
2018-10-21T08:51:07.967Z,21.87
2018-10-21T08:53:20.543Z,17.43
2018-10-21T08:55:39.222Z,15.57
2018-10-21T08:57:56.154Z,15.83
2018-10-21T08:59:56.628Z,15.50
2018-10-21T09:02:09.147Z,26.70
2018-10-21T09:04:31.986Z,16.83
2018-10-21T09:09:01.460Z,20.60
2018-10-21T09:11:23.349Z,18.40
2018-10-21T09:13:42.758Z,15.03
2018-10-21T09:15:58.577Z,17.70
2018-10-21T09:18:08.475Z,23.47
2018-10-21T09:20:23.994Z,14.70
2018-10-21T09:22:37.473Z,15.50
2018-10-21T09:24:55.693Z,18.90
2018-10-21T09:27:18.432Z,16.80
2018-10-21T09:29:56.733Z,16.70
2018-10-21T09:32:05.177Z,15.93
2018-10-21T09:34:17.873Z,22.30
2018-10-21T09:36:36.463Z,17.77
2018-10-21T09:38:55.292Z,15.50
2018-10-21T09:41:08.282Z,19.50
2018-10-21T09:43:33.587Z,16.30
2018-10-21T09:45:58.865Z,15.80
2018-10-21T09:48:45.539Z,19.10
2018-10-21T09:50:29.953Z,16.20
2018-10-21T09:52:44.334Z,16.90
2018-10-21T09:54:56.760Z,38.93
2018-10-21T09:57:21.710Z,18.83
2018-10-21T09:59:39.183Z,15.00
2018-10-21T10:02:05.257Z,19.70
2018-10-21T10:04:14.399Z,17.53
2018-10-21T10:09:43.589Z,15.27
2018-10-21T10:12:07.084Z,12.37
2018-10-21T10:14:24.182Z,11.80
2018-10-21T10:16:38.566Z,12.50
2018-10-21T10:18:47.703Z,10.10
2018-10-21T10:20:56.392Z,11.60
2018-10-21T10:23:05.115Z,9.13
2018-10-21T10:25:28.202Z,12.53
2018-10-21T10:27:36.766Z,10.30
2018-10-21T10:29:44.961Z,11.20
2018-10-21T10:31:52.947Z,8.60
2018-10-21T10:34:12.554Z,8.10
2018-10-21T10:36:20.693Z,9.27
2018-10-21T10:38:28.661Z,13.63
2018-10-21T10:40:36.714Z,9.00
2018-10-21T10:42:52.472Z,11.13
2018-10-21T10:45:04.940Z,9.00
2018-10-21T10:47:12.946Z,9.17
2018-10-21T10:49:20.939Z,9.27
2018-10-21T10:51:29.032Z,9.27
2018-10-21T10:53:38.185Z,8.70
2018-10-21T10:55:47.754Z,8.13
2018-10-21T10:57:55.893Z,6.67
2018-10-21T11:00:14.466Z,5.50
2018-10-21T11:02:33.871Z,6.50
2018-10-21T11:04:48.144Z,7.20
2018-10-21T11:06:59.053Z,12.90
2018-10-21T11:09:12.959Z,6.93
2018-10-21T11:11:21.000Z,6.97
2018-10-21T11:13:29.120Z,8.03
2018-10-21T11:15:37.135Z,4.77
2018-10-21T11:17:45.312Z,5.30
2018-10-21T11:19:53.359Z,4.40
2018-10-21T11:22:01.451Z,5.60
2018-10-21T11:24:09.418Z,4.77
2018-10-21T11:26:17.444Z,10.60
2018-10-21T11:28:26.034Z,4.50
2018-10-21T11:30:34.085Z,3.13
2018-10-21T11:32:42.198Z,3.80
2018-10-21T11:34:50.292Z,4.07
2018-10-21T11:36:58.367Z,5.90
2018-10-21T11:39:07.584Z,3.50
2018-10-21T11:41:15.638Z,3.27
2018-10-21T11:43:23.760Z,2.83
2018-10-21T11:45:31.773Z,2.40
2018-10-21T11:47:39.826Z,3.33
2018-10-21T11:50:04.376Z,2.23
2018-10-21T11:52:12.524Z,4.17
2018-10-21T11:54:20.508Z,1.90
2018-10-21T11:56:35.859Z,4.27
2018-10-21T11:58:43.849Z,3.40
2018-10-21T12:00:51.886Z,3.00
2018-10-21T12:02:59.944Z,2.90
2018-10-21T12:05:08.253Z,2.77
2018-10-21T12:07:16.521Z,3.20
2018-10-21T12:09:24.446Z,2.20
2018-10-21T12:11:32.504Z,2.83
2018-10-21T12:13:41.369Z,3.30
2018-10-21T12:15:49.406Z,3.93
2018-10-21T12:17:57.415Z,2.97
2018-10-21T12:20:05.462Z,5.27
2018-10-21T12:22:13.597Z,4.27
2018-10-21T12:24:21.875Z,3.60
2018-10-21T12:26:29.932Z,4.23
2018-10-21T12:28:35.496Z,2.80
2018-10-21T12:30:43.479Z,3.50
2018-10-21T12:32:51.486Z,4.10
2018-10-21T12:34:59.576Z,2.90
2018-10-21T12:37:07.587Z,3.67
2018-10-21T12:39:15.721Z,6.80
2018-10-21T12:41:25.546Z,4.60
2018-10-21T12:43:34.772Z,4.77
2018-10-21T12:45:42.822Z,3.43
2018-10-21T12:47:50.839Z,5.93
2018-10-21T12:49:58.917Z,4.93
2018-10-21T12:52:07.227Z,6.40
2018-10-21T12:54:15.482Z,5.30
2018-10-21T12:56:23.409Z,4.70
2018-10-21T12:58:31.435Z,4.10
2018-10-21T13:00:39.552Z,4.10
2018-10-21T13:02:47.556Z,3.50
2018-10-21T13:04:55.769Z,4.47
2018-10-21T13:07:03.867Z,4.53
2018-10-21T13:09:11.901Z,4.37
2018-10-21T13:11:19.968Z,5.20
2018-10-21T13:13:28.033Z,3.80
2018-10-21T13:15:36.185Z,4.60
2018-10-21T13:17:44.334Z,5.90
2018-10-21T13:19:52.492Z,5.53
2018-10-21T13:22:00.536Z,4.80
2018-10-21T13:24:08.619Z,5.10
2018-10-21T13:26:16.642Z,3.60
2018-10-21T13:28:24.710Z,4.40
2018-10-21T13:30:29.990Z,5.17
2018-10-21T13:32:37.975Z,5.80
2018-10-21T13:34:46.261Z,5.77
2018-10-21T13:36:54.342Z,4.50
2018-10-21T13:39:02.379Z,5.13
2018-10-21T13:41:10.411Z,5.30
2018-10-21T13:43:18.510Z,5.47
2018-10-21T13:45:26.441Z,4.03
2018-10-21T13:47:34.463Z,3.77
2018-10-21T13:49:42.488Z,4.13
2018-10-21T13:51:51.632Z,6.07
2018-10-21T13:53:59.713Z,3.37
2018-10-21T13:56:07.812Z,6.83
2018-10-21T13:58:15.979Z,3.80
2018-10-21T14:00:23.912Z,3.37
2018-10-21T14:02:32.036Z,10.50
2018-10-21T14:04:40.068Z,6.10
2018-10-21T14:06:48.152Z,5.47
2018-10-21T14:08:56.074Z,3.97
2018-10-21T14:11:04.175Z,6.90
2018-10-21T14:13:12.265Z,3.50
2018-10-21T14:15:20.273Z,6.27
2018-10-21T14:17:28.272Z,2.77
2018-10-21T14:19:36.342Z,3.00
2018-10-21T14:21:44.629Z,3.37
2018-10-21T14:23:52.757Z,4.67
2018-10-21T14:26:00.780Z,4.60
2018-10-21T14:28:09.062Z,3.00
2018-10-21T14:30:17.254Z,3.77
2018-10-21T14:32:25.511Z,3.63
2018-10-21T14:34:33.562Z,3.57
2018-10-21T14:36:41.578Z,4.03
2018-10-21T14:38:49.584Z,4.17
2018-10-21T14:40:57.647Z,3.37
2018-10-21T14:43:05.745Z,3.40
2018-10-21T14:45:13.994Z,3.10
2018-10-21T14:47:21.893Z,4.50
2018-10-21T14:49:31.942Z,3.60
2018-10-21T14:51:40.040Z,5.27
2018-10-21T14:53:48.115Z,5.23
2018-10-21T14:55:56.188Z,3.67
2018-10-21T14:58:04.219Z,7.47
2018-10-21T15:00:14.424Z,2.60
2018-10-21T15:02:22.411Z,5.93
2018-10-21T15:04:30.505Z,3.73
2018-10-21T15:06:38.619Z,4.03
2018-10-21T15:08:46.761Z,4.30
2018-10-21T15:10:54.807Z,8.50
2018-10-21T15:13:02.894Z,2.83
2018-10-21T15:15:11.638Z,4.20
2018-10-21T15:17:19.656Z,6.03
2018-10-21T15:19:27.743Z,3.93
2018-10-21T15:21:35.938Z,5.60
2018-10-21T15:23:43.969Z,5.53
2018-10-21T15:25:52.238Z,3.03
2018-10-21T15:28:00.289Z,3.20
2018-10-21T15:30:10.189Z,2.47
2018-10-21T15:32:18.300Z,9.40
2018-10-21T15:34:24.907Z,4.10
2018-10-21T15:36:33.083Z,6.10
2018-10-21T15:38:41.099Z,4.13
2018-10-21T15:40:49.258Z,4.47
2018-10-21T15:42:57.364Z,3.10
2018-10-21T15:45:05.571Z,4.03
2018-10-21T15:47:13.751Z,4.70
2018-10-21T15:49:21.796Z,4.50
2018-10-21T15:51:29.874Z,3.40
2018-10-21T15:53:40.315Z,4.97
2018-10-21T15:55:48.377Z,3.10
2018-10-21T15:57:56.454Z,3.70
2018-10-21T16:00:04.482Z,3.20
2018-10-21T16:02:12.577Z,2.90
2018-10-21T16:04:20.681Z,3.70
2018-10-21T16:06:28.739Z,4.27
2018-10-21T16:08:36.810Z,5.83
2018-10-21T16:10:47.178Z,4.27
2018-10-21T16:12:55.304Z,3.20
2018-10-21T16:15:03.344Z,8.80
2018-10-21T16:17:11.606Z,7.10
2018-10-21T16:19:19.698Z,4.73
2018-10-21T16:21:27.775Z,4.63
2018-10-21T16:23:38.628Z,5.73
2018-10-21T16:25:46.961Z,8.60
2018-10-21T16:27:54.987Z,5.80
2018-10-21T16:30:03.308Z,7.40
2018-10-21T16:32:11.458Z,9.77
2018-10-21T16:34:19.546Z,11.17
2018-10-21T16:36:26.069Z,10.73
2018-10-21T16:38:34.232Z,15.83
2018-10-21T16:40:44.738Z,11.53
2018-10-21T16:42:52.848Z,9.57
2018-10-21T16:45:01.024Z,8.93
2018-10-21T16:47:09.304Z,7.40
2018-10-21T16:49:17.406Z,9.33
2018-10-21T16:51:25.572Z,6.37
2018-10-21T16:53:33.513Z,6.20
2018-10-21T16:55:41.578Z,5.80
2018-10-21T16:57:49.732Z,4.63
2018-10-21T16:59:59.490Z,9.63
2018-10-21T17:02:07.571Z,7.00
2018-10-21T17:04:15.690Z,8.27
2018-10-21T17:06:23.693Z,6.90
2018-10-21T17:08:34.828Z,7.77
2018-10-21T17:10:43.717Z,7.67
2018-10-21T17:12:51.602Z,7.27
2018-10-21T17:14:59.605Z,8.90
2018-10-21T17:17:07.828Z,5.60
2018-10-21T17:19:15.972Z,15.03
2018-10-21T17:21:23.973Z,4.90
2018-10-21T17:23:32.000Z,7.57
2018-10-21T17:25:42.547Z,7.80
2018-10-21T17:28:06.398Z,5.03
2018-10-21T17:30:35.463Z,8.33
2018-10-21T17:32:43.791Z,8.40
2018-10-21T17:34:51.899Z,9.10
2018-10-21T17:36:57.213Z,10.13
2018-10-21T17:39:06.123Z,4.70
2018-10-21T17:41:14.309Z,7.13
2018-10-21T17:43:22.456Z,7.53
2018-10-21T17:45:30.533Z,10.67
2018-10-21T17:47:38.633Z,12.33
2018-10-21T17:49:46.940Z,6.03
2018-10-21T17:51:54.958Z,7.40
2018-10-21T17:54:02.983Z,11.00
2018-10-21T17:56:11.078Z,8.50
2018-10-21T17:58:19.296Z,7.23
2018-10-21T18:00:27.285Z,6.60
2018-10-21T18:02:35.427Z,4.77
2018-10-21T18:04:43.629Z,6.10
2018-10-21T18:06:51.903Z,4.80
2018-10-21T18:09:15.232Z,4.53
2018-10-21T18:11:46.151Z,5.50
2018-10-21T18:14:08.033Z,3.93
2018-10-21T18:16:27.484Z,6.03
2018-10-21T18:18:50.571Z,6.47
2018-10-21T18:21:10.978Z,8.73
2018-10-21T18:23:41.885Z,9.03
2018-10-21T18:26:10.683Z,9.70
2018-10-21T18:28:42.601Z,10.43
2018-10-21T18:31:03.313Z,6.57
2018-10-21T18:36:38.262Z,7.67
2018-10-21T18:39:43.071Z,15.00
2018-10-21T18:42:17.531Z,30.83
2018-10-21T18:44:43.820Z,38.77
2018-10-21T18:47:08.189Z,65.97
2018-10-21T18:49:29.435Z,80.93
2018-10-21T18:51:45.562Z,134.30
2018-10-21T18:54:05.523Z,109.30
2018-10-21T18:57:06.361Z,91.67
2018-10-21T18:59:27.745Z,53.00
2018-10-21T19:01:55.991Z,28.87
2018-10-21T19:04:23.980Z,17.63
2018-10-21T19:06:47.898Z,16.20
2018-10-21T19:09:14.150Z,19.63
2018-10-21T19:11:30.664Z,9.33
2018-10-21T19:14:00.098Z,6.73
2018-10-21T19:16:21.572Z,7.30
2018-10-21T19:18:49.346Z,7.53
2018-10-21T19:21:09.836Z,8.10
2018-10-21T19:23:33.479Z,3.70
2018-10-21T19:25:54.069Z,7.13
2018-10-21T19:28:25.004Z,5.53
2018-10-21T19:31:00.206Z,6.63
2018-10-21T19:33:36.961Z,11.03
2018-10-21T19:36:16.105Z,9.50
2018-10-21T19:38:51.998Z,25.03
2018-10-21T19:41:19.113Z,9.60
2018-10-21T19:43:28.612Z,9.00
2018-10-21T19:45:50.780Z,10.37
2018-10-21T19:48:27.673Z,9.00
2018-10-21T19:51:00.691Z,8.50
2018-10-21T19:53:48.154Z,6.43
2018-10-21T19:56:17.091Z,9.20
2018-10-21T19:58:46.066Z,6.67
2018-10-21T20:01:17.087Z,9.37
2018-10-21T20:03:49.599Z,10.33
2018-10-21T20:06:06.461Z,15.17
2018-10-21T20:08:37.350Z,13.50
2018-10-21T20:11:11.376Z,11.10
2018-10-21T20:13:53.115Z,10.90
2018-10-21T20:16:19.552Z,9.83
2018-10-21T20:19:04.256Z,10.20
2018-10-21T20:21:46.483Z,13.33
2018-10-21T20:24:13.790Z,8.00
2018-10-21T20:26:40.292Z,11.23
2018-10-21T20:29:17.337Z,9.07
2018-10-21T20:31:56.243Z,15.43
2018-10-21T20:34:27.814Z,14.50
2018-10-21T20:36:49.558Z,9.93
2018-10-21T20:39:21.479Z,10.40
2018-10-21T20:41:46.781Z,15.80
2018-10-21T20:44:04.586Z,11.60
2018-10-21T20:46:15.813Z,13.00
2018-10-21T20:48:48.120Z,8.27
2018-10-21T20:51:30.385Z,8.17
2018-10-21T20:53:58.565Z,9.50
2018-10-21T20:56:23.915Z,9.50
2018-10-21T20:58:39.473Z,8.27
2018-10-21T21:01:06.579Z,11.80
2018-10-21T21:03:34.034Z,9.23
2018-10-21T21:06:03.484Z,8.53
2018-10-21T21:08:20.710Z,9.47
2018-10-21T21:10:43.492Z,9.27
2018-10-21T21:13:10.991Z,6.37
2018-10-21T21:15:37.985Z,9.07
2018-10-21T21:18:09.470Z,10.60
2018-10-21T21:20:37.842Z,5.47
2018-10-21T21:23:04.936Z,6.70
2018-10-21T21:25:30.313Z,5.77
2018-10-21T21:27:56.437Z,3.90
2018-10-21T21:30:14.471Z,5.30
2018-10-21T21:32:49.991Z,6.13
2018-10-21T21:35:22.954Z,5.70
2018-10-21T21:38:00.590Z,4.00
2018-10-21T21:40:03.985Z,6.70
2018-10-21T21:42:27.520Z,5.57
2018-10-21T21:44:47.938Z,4.60
2018-10-21T21:47:25.301Z,7.63
2018-10-21T21:50:00.857Z,5.10
2018-10-21T21:52:42.210Z,5.40
2018-10-21T21:55:11.927Z,12.20
2018-10-21T21:57:30.204Z,5.60
2018-10-21T21:59:53.031Z,5.87
2018-10-21T22:02:34.853Z,7.30
2018-10-21T22:05:04.956Z,5.23
2018-10-21T22:08:02.254Z,7.00
2018-10-21T22:10:26.076Z,6.73
2018-10-21T22:12:41.141Z,5.33
2018-10-21T22:15:07.175Z,7.27
2018-10-21T22:17:26.689Z,5.43
2018-10-21T22:19:42.552Z,5.63
2018-10-21T22:22:15.094Z,6.50
2018-10-21T22:24:38.494Z,4.90
2018-10-21T22:27:01.857Z,7.90
2018-10-21T22:29:16.632Z,5.03
2018-10-21T22:31:45.205Z,6.50
2018-10-21T22:34:00.451Z,5.70
2018-10-21T22:36:28.551Z,6.13
2018-10-21T22:38:55.173Z,4.77
2018-10-21T22:41:27.228Z,6.67
2018-10-21T22:43:45.469Z,5.00
2018-10-21T22:46:25.160Z,8.20
2018-10-21T22:48:41.953Z,5.30
2018-10-21T22:51:07.473Z,5.57
2018-10-21T22:53:15.684Z,5.47
2018-10-21T22:55:36.444Z,7.07
2018-10-21T22:58:03.311Z,5.20
2018-10-21T23:00:21.103Z,4.40
2018-10-21T23:02:34.911Z,6.30
2018-10-21T23:05:08.534Z,6.10
2018-10-21T23:07:38.812Z,8.83
2018-10-21T23:10:03.336Z,18.87
2018-10-21T23:12:09.103Z,10.00
2018-10-21T23:14:26.667Z,7.43
2018-10-21T23:16:44.807Z,8.07
2018-10-21T23:19:52.447Z,8.17
2018-10-21T23:22:14.742Z,8.17
2018-10-21T23:24:29.203Z,6.50
2018-10-21T23:26:50.651Z,6.67
2018-10-21T23:29:11.816Z,5.20
2018-10-21T23:31:31.525Z,7.57
2018-10-21T23:33:55.772Z,8.23
2018-10-21T23:36:34.157Z,5.67
2018-10-21T23:39:02.879Z,7.87
2018-10-21T23:41:19.490Z,6.23
2018-10-21T23:43:31.128Z,5.30
2018-10-21T23:45:39.995Z,6.00
2018-10-21T23:47:52.281Z,5.90
2018-10-21T23:50:22.258Z,6.27
2018-10-21T23:52:54.095Z,7.00
2018-10-21T23:55:06.863Z,8.40
2018-10-21T23:57:25.300Z,5.80
2018-10-21T23:59:43.895Z,5.90
